Disclaimer

Please do not use the information listed here in-flight or in-navigation, as they are not provided to us by the airports but are provided by volunteers, so they might be outdated.

Search


Regions


Airport information page

No radio frequency information is available.

Airport informations:
Latitude: 33° 02' 08.05" S
Longitude: 027° 49' 33.38" E
Elevation: 435 feet - 133 meters
Operating hours: Remarks
Operating agency: Civil government, landing fees and diplomatic clearance may be required
Timezone: UTC+2
Fuel: Jet A1, without icing nhibitor.

100/130 MIL Spec, low lead, aviation gasoline (BLUE)

Runway information:
06/24 - 5200 x 150 feet< - >1585 x 46 meters
11/29 - 6362 x 150 feet< - >1939 x 46 meters

Recent METARs:
FAEL 160300Z 22003KT 9999 SCT020 BKN029 21/20 Q1018

Airport on the map: